Etusivu
METAR-TAF:

METAR-TAF

Lentoasemat :

Visbyn lentoasema

Visby, Gotlanti, Ruotsi

Leveyspiiri: 57-40N, Pituuspiiri: 018-21E, korkeus merenpinnasta: 51 m

Tämänhetkinen sää

Tämä raportti tehtiin 37 minuuttia sitten, kello 11.20 UTC
Tuuli 17 kn lännestä/lounaasta
Lämpötila 13°C
Kosteus 67%
Ilmanpaine 1002 hPa
Näkyvyys 10 km tai enemmän
Hajanaisia pilviä 2800 ft:n korkeudessa
Hajonneita pilviä 4600 ft:n korkeudessa

METAR: ESSV 231120Z 25017KT 9999 SCT028 BKN046 13/07 Q1002

Aika: 13:57 (11:57 UTC)

Sääennuste

Tämä raportti tehtiin 27 minuuttia sitten, kello 11.30 UTC
Ennuste voimassa 23. päivästä klo 12 UTC - 23. päivään klo 21 UTC
Tuuli 15 kn lännestä puuskistuen 28 kn:hen
Näkyvyys 10 km tai enemmän
Hajanaisia pilviä 3000 ft:n korkeudessa
Hajonneita pilviä 4500 ft:n korkeudessa
Tulossa
23. päivästä klo 15 UTC - 23. päivään klo 18 UTC
Tuuli 8 kn lännestä/luoteesta

TAF: ESSV 231130Z 2312/2321 26015G28KT 9999 SCT030 BKN045 BECMG 2315/2318 30008KT

Säähavainnot ja -ennusteet yli 4000 lentoasemalta (METAR- ja TAF-raportit).

Käytössä olevat sääasemat on merkitty karttaan keltaisilla ja punaisilla pisteillä.

Aseta hiiri pisteen päälle nähdäksesi sääaseman nimen.

Klikkaa sitten nähdäksesi säähavainnot ja -ennusteet.

Kartan vaihtaminen: klikkaa mustalla rastilla varustettuja vihreitä pisteitä, niin voit zoomata sisään; viivalla varustettua vihreää pistettä, niin voit zoomata ulos tai vihreitä nuolia, niin pääset viereisille kartoille.


METAR-TAF: